sensor_id;sensor_type;location;lat;lon;timestamp;pressure;altitude;pressure_sealevel;temperature;humidity
59009;BME280;44794;42.652;23.318;2023-02-15T00:01:43;95694.50;;;1.42;90.97
59009;BME280;44794;42.652;23.318;2023-02-15T00:04:09;95699.81;;;1.33;91.24
59009;BME280;44794;42.652;23.318;2023-02-15T00:06:37;95710.00;;;1.34;91.47
59009;BME280;44794;42.652;23.318;2023-02-15T00:09:03;95710.00;;;1.36;91.39
59009;BME280;44794;42.652;23.318;2023-02-15T00:11:28;95709.94;;;1.37;91.26
59009;BME280;44794;42.652;23.318;2023-02-15T00:14:20;95709.16;;;1.34;91.44
59009;BME280;44794;42.652;23.318;2023-02-15T00:16:47;95713.34;;;1.38;91.36
59009;BME280;44794;42.652;23.318;2023-02-15T00:19:15;95711.78;;;1.32;91.51
59009;BME280;44794;42.652;23.318;2023-02-15T00:21:42;95712.66;;;1.31;91.61
59009;BME280;44794;42.652;23.318;2023-02-15T00:24:10;95720.22;;;1.34;91.82
59009;BME280;44794;42.652;23.318;2023-02-15T00:26:38;95723.47;;;1.42;91.59
59009;BME280;44794;42.652;23.318;2023-02-15T00:29:03;95711.56;;;1.41;91.68
59009;BME280;44794;42.652;23.318;2023-02-15T00:31:31;95713.34;;;1.39;91.71
59009;BME280;44794;42.652;23.318;2023-02-15T00:34:02;95724.41;;;1.40;91.82
59009;BME280;44794;42.652;23.318;2023-02-15T00:36:28;95721.88;;;1.38;91.76
59009;BME280;44794;42.652;23.318;2023-02-15T00:38:53;95721.75;;;1.44;91.59
59009;BME280;44794;42.652;23.318;2023-02-15T00:41:19;95717.31;;;1.50;91.41
59009;BME280;44794;42.652;23.318;2023-02-15T00:43:44;95725.78;;;1.54;91.47
59009;BME280;44794;42.652;23.318;2023-02-15T00:46:09;95727.38;;;1.59;91.02
59009;BME280;44794;42.652;23.318;2023-02-15T00:48:35;95728.03;;;1.67;90.61
59009;BME280;44794;42.652;23.318;2023-02-15T00:51:00;95724.75;;;1.61;90.40
59009;BME280;44794;42.652;23.318;2023-02-15T00:53:27;95724.88;;;1.56;90.44
59009;BME280;44794;42.652;23.318;2023-02-15T00:55:53;95722.28;;;1.58;90.29
59009;BME280;44794;42.652;23.318;2023-02-15T00:58:18;95723.09;;;1.60;90.19
59009;BME280;44794;42.652;23.318;2023-02-15T01:00:45;95731.66;;;1.59;90.31
59009;BME280;44794;42.652;23.318;2023-02-15T01:03:13;95725.78;;;1.54;90.57
59009;BME280;44794;42.652;23.318;2023-02-15T01:05:39;95721.56;;;1.51;90.83
59009;BME280;44794;42.652;23.318;2023-02-15T01:08:05;95725.81;;;1.52;90.75
59009;BME280;44794;42.652;23.318;2023-02-15T01:10:31;95718.00;;;1.60;90.76
59009;BME280;44794;42.652;23.318;2023-02-15T01:12:56;95718.94;;;1.54;90.80
59009;BME280;44794;42.652;23.318;2023-02-15T01:15:23;95721.44;;;1.57;90.36
59009;BME280;44794;42.652;23.318;2023-02-15T01:17:48;95716.28;;;1.59;90.75
59009;BME280;44794;42.652;23.318;2023-02-15T01:20:22;95715.38;;;1.61;90.63
59009;BME280;44794;42.652;23.318;2023-02-15T01:22:48;95719.63;;;1.61;90.38
59009;BME280;44794;42.652;23.318;2023-02-15T01:25:19;95714.75;;;1.52;90.68
59009;BME280;44794;42.652;23.318;2023-02-15T01:27:46;95712.97;;;1.55;90.98
59009;BME280;44794;42.652;23.318;2023-02-15T01:30:12;95703.78;;;1.46;91.32
59009;BME280;44794;42.652;23.318;2023-02-15T01:32:38;95704.84;;;1.37;91.49
59009;BME280;44794;42.652;23.318;2023-02-15T01:35:03;95698.84;;;1.37;91.86
59009;BME280;44794;42.652;23.318;2023-02-15T01:37:33;95702.28;;;1.37;92.00
59009;BME280;44794;42.652;23.318;2023-02-15T01:39:58;95699.63;;;1.42;92.03
59009;BME280;44794;42.652;23.318;2023-02-15T01:42:26;95695.34;;;1.42;92.03
59009;BME280;44794;42.652;23.318;2023-02-15T01:50:17;95688.72;;;1.34;92.64
59009;BME280;44794;42.652;23.318;2023-02-15T01:52:56;95683.63;;;1.32;92.65
59009;BME280;44794;42.652;23.318;2023-02-15T01:55:25;95683.81;;;1.23;93.21
59009;BME280;44794;42.652;23.318;2023-02-15T01:57:52;95677.84;;;1.24;93.32
59009;BME280;44794;42.652;23.318;2023-02-15T02:00:18;95673.63;;;1.22;93.71
59009;BME280;44794;42.652;23.318;2023-02-15T02:02:46;95678.78;;;1.19;93.68
59009;BME280;44794;42.652;23.318;2023-02-15T02:05:12;95678.88;;;1.14;94.09
59009;BME280;44794;42.652;23.318;2023-02-15T02:07:41;95679.84;;;1.10;94.17
59009;BME280;44794;42.652;23.318;2023-02-15T02:10:10;95672.94;;;1.12;94.61
59009;BME280;44794;42.652;23.318;2023-02-15T02:12:37;95668.63;;;1.16;94.54
59009;BME280;44794;42.652;23.318;2023-02-15T02:15:05;95665.38;;;1.09;94.74
59009;BME280;44794;42.652;23.318;2023-02-15T02:20:11;95677.41;;;1.03;95.16
59009;BME280;44794;42.652;23.318;2023-02-15T02:34:10;95694.31;;;1.49;93.22
59009;BME280;44794;42.652;23.318;2023-02-15T02:37:31;95695.97;;;1.51;92.84
59009;BME280;44794;42.652;23.318;2023-02-15T02:39:46;95700.03;;;1.61;92.38
59009;BME280;44794;42.652;23.318;2023-02-15T02:42:24;95696.59;;;1.62;92.07
59009;BME280;44794;42.652;23.318;2023-02-15T02:45:20;95697.28;;;1.69;91.71
59009;BME280;44794;42.652;23.318;2023-02-15T02:48:00;95700.66;;;1.71;91.53
59009;BME280;44794;42.652;23.318;2023-02-15T02:50:29;95700.66;;;1.71;91.35
59009;BME280;44794;42.652;23.318;2023-02-15T02:52:57;95701.53;;;1.70;91.44
59009;BME280;44794;42.652;23.318;2023-02-15T02:55:34;95705.47;;;1.83;91.09
59009;BME280;44794;42.652;23.318;2023-02-15T02:58:11;95709.09;;;1.74;91.10
59009;BME280;44794;42.652;23.318;2023-02-15T03:00:50;95709.06;;;1.76;91.05
59009;BME280;44794;42.652;23.318;2023-02-15T03:06:04;95715.72;;;1.83;90.46
59009;BME280;44794;42.652;23.318;2023-02-15T03:08:36;95719.16;;;1.82;90.40
59009;BME280;44794;42.652;23.318;2023-02-15T03:11:03;95722.41;;;1.90;90.21
59009;BME280;44794;42.652;23.318;2023-02-15T03:13:29;95731.88;;;1.86;90.09
59009;BME280;44794;42.652;23.318;2023-02-15T03:15:56;95728.38;;;1.90;89.97
59009;BME280;44794;42.652;23.318;2023-02-15T03:18:45;95736.88;;;1.91;89.82
59009;BME280;44794;42.652;23.318;2023-02-15T03:21:19;95730.78;;;1.96;89.67
59009;BME280;44794;42.652;23.318;2023-02-15T03:23:52;95726.59;;;1.94;89.87
59009;BME280;44794;42.652;23.318;2023-02-15T03:26:20;95728.34;;;1.92;89.89
59009;BME280;44794;42.652;23.318;2023-02-15T03:28:49;95732.50;;;1.96;89.56
59009;BME280;44794;42.652;23.318;2023-02-15T03:31:16;95730.03;;;1.93;89.77
59009;BME280;44794;42.652;23.318;2023-02-15T03:33:49;95724.84;;;1.94;89.78
59009;BME280;44794;42.652;23.318;2023-02-15T03:39:20;95724.03;;;1.92;89.84
59009;BME280;44794;42.652;23.318;2023-02-15T03:41:56;95725.81;;;1.89;89.87
59009;BME280;44794;42.652;23.318;2023-02-15T03:44:28;95723.16;;;1.93;90.13
59009;BME280;44794;42.652;23.318;2023-02-15T03:47:03;95717.06;;;1.99;89.86
59009;BME280;44794;42.652;23.318;2023-02-15T03:52:03;95722.25;;;1.96;89.69
59009;BME280;44794;42.652;23.318;2023-02-15T03:54:32;95722.19;;;1.99;89.86
59009;BME280;44794;42.652;23.318;2023-02-15T03:57:11;95732.50;;;1.96;89.80
59009;BME280;44794;42.652;23.318;2023-02-15T03:59:57;95735.03;;;1.97;90.00
59009;BME280;44794;42.652;23.318;2023-02-15T04:05:36;95731.63;;;1.97;89.88
59009;BME280;44794;42.652;23.318;2023-02-15T04:08:01;95724.81;;;1.96;90.33
59009;BME280;44794;42.652;23.318;2023-02-15T04:10:27;95721.41;;;1.95;90.22
59009;BME280;44794;42.652;23.318;2023-02-15T04:13:11;95725.63;;;1.98;90.41
59009;BME280;44794;42.652;23.318;2023-02-15T04:15:37;95741.00;;;1.98;90.44
59009;BME280;44794;42.652;23.318;2023-02-15T04:18:21;95739.91;;;2.08;90.35
59009;BME280;44794;42.652;23.318;2023-02-15T04:20:46;95745.28;;;1.97;90.46
59009;BME280;44794;42.652;23.318;2023-02-15T04:23:31;95749.41;;;2.03;90.78
59009;BME280;44794;42.652;23.318;2023-02-15T04:26:15;95745.00;;;2.09;90.80
59009;BME280;44794;42.652;23.318;2023-02-15T04:28:40;95751.09;;;2.04;90.74
59009;BME280;44794;42.652;23.318;2023-02-15T04:31:06;95755.44;;;2.00;91.03
59009;BME280;44794;42.652;23.318;2023-02-15T04:33:31;95762.09;;;2.07;90.99
59009;BME280;44794;42.652;23.318;2023-02-15T04:35:57;95769.75;;;2.10;91.01
59009;BME280;44794;42.652;23.318;2023-02-15T04:38:22;95763.75;;;2.11;90.89
59009;BME280;44794;42.652;23.318;2023-02-15T04:40:51;95763.63;;;2.16;91.54
59009;BME280;44794;42.652;23.318;2023-02-15T04:43:18;95762.56;;;2.24;91.34
59009;BME280;44794;42.652;23.318;2023-02-15T04:45:50;95768.28;;;2.35;91.04
59009;BME280;44794;42.652;23.318;2023-02-15T04:48:16;95768.41;;;2.29;90.55
59009;BME280;44794;42.652;23.318;2023-02-15T04:50:42;95764.94;;;2.31;89.99
59009;BME280;44794;42.652;23.318;2023-02-15T04:53:08;95754.84;;;2.25;90.24
59009;BME280;44794;42.652;23.318;2023-02-15T04:55:33;95767.59;;;2.28;90.20
59009;BME280;44794;42.652;23.318;2023-02-15T04:57:59;95760.69;;;2.30;90.00
59009;BME280;44794;42.652;23.318;2023-02-15T05:00:24;95774.41;;;2.29;89.88
59009;BME280;44794;42.652;23.318;2023-02-15T05:02:49;95769.81;;;2.42;89.99
59009;BME280;44794;42.652;23.318;2023-02-15T05:05:16;95775.13;;;2.34;89.82
59009;BME280;44794;42.652;23.318;2023-02-15T05:07:42;95782.81;;;2.34;89.49
59009;BME280;44794;42.652;23.318;2023-02-15T05:10:08;95784.34;;;2.41;89.62
59009;BME280;44794;42.652;23.318;2023-02-15T05:12:33;95778.47;;;2.38;89.08
59009;BME280;44794;42.652;23.318;2023-02-15T05:14:59;95779.44;;;2.32;89.19
59009;BME280;44794;42.652;23.318;2023-02-15T05:17:24;95782.19;;;2.25;89.58
59009;BME280;44794;42.652;23.318;2023-02-15T05:19:49;95789.13;;;2.20;89.85
59009;BME280;44794;42.652;23.318;2023-02-15T05:22:15;95794.28;;;2.19;90.06
59009;BME280;44794;42.652;23.318;2023-02-15T05:24:40;95795.13;;;2.21;90.29
59009;BME280;44794;42.652;23.318;2023-02-15T05:27:24;95794.38;;;2.16;90.39
59009;BME280;44794;42.652;23.318;2023-02-15T05:30:09;95799.50;;;2.16;90.78
59009;BME280;44794;42.652;23.318;2023-02-15T05:32:37;95803.63;;;2.21;90.52
59009;BME280;44794;42.652;23.318;2023-02-15T05:35:04;95806.44;;;2.11;90.32
59009;BME280;44794;42.652;23.318;2023-02-15T05:37:30;95816.72;;;2.09;90.59
59009;BME280;44794;42.652;23.318;2023-02-15T05:39:55;95819.97;;;2.17;90.47
59009;BME280;44794;42.652;23.318;2023-02-15T05:42:20;95817.34;;;2.19;90.51
59009;BME280;44794;42.652;23.318;2023-02-15T05:44:46;95814.88;;;2.14;90.18
59009;BME280;44794;42.652;23.318;2023-02-15T05:47:11;95813.88;;;2.22;90.00
59009;BME280;44794;42.652;23.318;2023-02-15T05:49:36;95812.09;;;2.24;89.75
59009;BME280;44794;42.652;23.318;2023-02-15T05:52:03;95819.03;;;2.20;89.68
59009;BME280;44794;42.652;23.318;2023-02-15T05:54:28;95812.03;;;2.27;89.99
59009;BME280;44794;42.652;23.318;2023-02-15T05:56:54;95824.03;;;2.25;89.68
59009;BME280;44794;42.652;23.318;2023-02-15T05:59:19;95815.50;;;2.25;89.34
59009;BME280;44794;42.652;23.318;2023-02-15T06:01:45;95810.44;;;2.22;89.68
59009;BME280;44794;42.652;23.318;2023-02-15T06:04:10;95813.63;;;2.33;89.40
59009;BME280;44794;42.652;23.318;2023-02-15T06:06:35;95821.41;;;2.27;89.27
59009;BME280;44794;42.652;23.318;2023-02-15T06:09:01;95815.13;;;2.41;89.27
59009;BME280;44794;42.652;23.318;2023-02-15T06:11:27;95823.56;;;2.45;89.18
59009;BME280;44794;42.652;23.318;2023-02-15T06:13:52;95822.03;;;2.38;89.13
59009;BME280;44794;42.652;23.318;2023-02-15T06:16:18;95811.75;;;2.39;88.96
59009;BME280;44794;42.652;23.318;2023-02-15T06:18:43;95815.88;;;2.45;88.51
59009;BME280;44794;42.652;23.318;2023-02-15T06:21:08;95820.72;;;2.57;88.18
59009;BME280;44794;42.652;23.318;2023-02-15T06:23:34;95825.22;;;2.47;88.10
59009;BME280;44794;42.652;23.318;2023-02-15T06:25:59;95828.34;;;2.58;87.81
59009;BME280;44794;42.652;23.318;2023-02-15T06:28:25;95829.13;;;2.63;87.60
59009;BME280;44794;42.652;23.318;2023-02-15T06:30:51;95826.25;;;2.75;87.24
59009;BME280;44794;42.652;23.318;2023-02-15T06:33:17;95829.50;;;2.82;86.96
59009;BME280;44794;42.652;23.318;2023-02-15T06:35:42;95824.41;;;2.80;86.14
59009;BME280;44794;42.652;23.318;2023-02-15T06:38:08;95825.25;;;2.81;86.37
59009;BME280;44794;42.652;23.318;2023-02-15T06:40:33;95822.72;;;2.79;85.94
59009;BME280;44794;42.652;23.318;2023-02-15T06:42:59;95828.88;;;2.72;85.95
59009;BME280;44794;42.652;23.318;2023-02-15T06:45:24;95825.81;;;2.92;86.02
59009;BME280;44794;42.652;23.318;2023-02-15T06:47:50;95836.84;;;2.95;85.35
59009;BME280;44794;42.652;23.318;2023-02-15T06:50:15;95835.81;;;3.02;84.95
59009;BME280;44794;42.652;23.318;2023-02-15T06:52:41;95833.13;;;3.06;84.36
59009;BME280;44794;42.652;23.318;2023-02-15T06:55:06;95839.06;;;3.08;83.51
59009;BME280;44794;42.652;23.318;2023-02-15T06:57:32;95843.19;;;3.14;83.21
59009;BME280;44794;42.652;23.318;2023-02-15T06:59:58;95838.53;;;3.28;82.60
59009;BME280;44794;42.652;23.318;2023-02-15T07:02:24;95836.31;;;3.46;81.63
59009;BME280;44794;42.652;23.318;2023-02-15T07:04:50;95836.53;;;3.39;81.03
59009;BME280;44794;42.652;23.318;2023-02-15T07:07:15;95829.78;;;3.35;81.04
59009;BME280;44794;42.652;23.318;2023-02-15T07:09:41;95838.53;;;3.60;80.57
59009;BME280;44794;42.652;23.318;2023-02-15T07:12:06;95843.19;;;3.76;79.33
59009;BME280;44794;42.652;23.318;2023-02-15T07:14:51;95826.34;;;3.96;78.57
59009;BME280;44794;42.652;23.318;2023-02-15T07:17:16;95840.22;;;4.18;77.43
59009;BME280;44794;42.652;23.318;2023-02-15T07:19:43;95840.75;;;4.29;76.02
59009;BME280;44794;42.652;23.318;2023-02-15T07:22:08;95844.78;;;4.10;75.99
59009;BME280;44794;42.652;23.318;2023-02-15T07:24:34;95859.38;;;4.37;75.65
59009;BME280;44794;42.652;23.318;2023-02-15T07:26:59;95854.50;;;4.28;75.18
59009;BME280;44794;42.652;23.318;2023-02-15T07:29:25;95842.75;;;3.91;76.01
59009;BME280;44794;42.652;23.318;2023-02-15T07:31:50;95837.31;;;3.72;77.47
59009;BME280;44794;42.652;23.318;2023-02-15T07:34:16;95836.31;;;4.05;76.89
59009;BME280;44794;42.652;23.318;2023-02-15T07:36:43;95843.47;;;4.25;75.09
59009;BME280;44794;42.652;23.318;2023-02-15T07:39:12;95848.09;;;4.41;74.61
59009;BME280;44794;42.652;23.318;2023-02-15T07:41:38;95838.06;;;4.32;74.44
59009;BME280;44794;42.652;23.318;2023-02-15T07:44:03;95841.69;;;4.54;74.14
59009;BME280;44794;42.652;23.318;2023-02-15T07:46:29;95846.47;;;4.66;72.40
59009;BME280;44794;42.652;23.318;2023-02-15T07:48:55;95837.13;;;4.62;72.47
59009;BME280;44794;42.652;23.318;2023-02-15T07:51:21;95831.78;;;4.68;71.91
59009;BME280;44794;42.652;23.318;2023-02-15T07:53:46;95831.66;;;4.72;72.46
59009;BME280;44794;42.652;23.318;2023-02-15T07:56:13;95823.59;;;4.83;71.12
59009;BME280;44794;42.652;23.318;2023-02-15T07:58:39;95839.81;;;5.11;70.50
59009;BME280;44794;42.652;23.318;2023-02-15T08:01:19;95843.69;;;4.98;70.16
59009;BME280;44794;42.652;23.318;2023-02-15T08:03:45;95835.31;;;4.91;70.04
59009;BME280;44794;42.652;23.318;2023-02-15T08:06:11;95841.31;;;4.92;70.29
59009;BME280;44794;42.652;23.318;2023-02-15T08:08:39;95836.38;;;4.86;70.61
59009;BME280;44794;42.652;23.318;2023-02-15T08:11:09;95844.78;;;4.91;70.42
59009;BME280;44794;42.652;23.318;2023-02-15T08:18:54;95845.06;;;4.82;70.82
59009;BME280;44794;42.652;23.318;2023-02-15T08:21:20;95857.56;;;4.66;71.21
59009;BME280;44794;42.652;23.318;2023-02-15T08:23:47;95851.06;;;4.55;72.11
59009;BME280;44794;42.652;23.318;2023-02-15T08:26:13;95851.00;;;4.58;71.80
59009;BME280;44794;42.652;23.318;2023-02-15T08:28:39;95854.59;;;4.52;71.73
59009;BME280;44794;42.652;23.318;2023-02-15T08:31:10;95865.34;;;4.65;71.79
59009;BME280;44794;42.652;23.318;2023-02-15T08:33:37;95856.47;;;5.01;70.47
59009;BME280;44794;42.652;23.318;2023-02-15T08:36:09;95856.56;;;4.72;70.57
59009;BME280;44794;42.652;23.318;2023-02-15T08:38:35;95858.47;;;4.91;70.50
59009;BME280;44794;42.652;23.318;2023-02-15T08:43:36;95861.69;;;4.72;70.73
59009;BME280;44794;42.652;23.318;2023-02-15T08:46:02;95847.16;;;4.97;70.33
59009;BME280;44794;42.652;23.318;2023-02-15T08:48:28;95860.41;;;5.11;69.62
59009;BME280;44794;42.652;23.318;2023-02-15T08:50:53;95864.06;;;5.04;69.40
59009;BME280;44794;42.652;23.318;2023-02-15T08:53:19;95859.81;;;4.77;69.30
59009;BME280;44794;42.652;23.318;2023-02-15T08:55:47;95857.66;;;4.63;69.94
59009;BME280;44794;42.652;23.318;2023-02-15T08:58:12;95856.94;;;4.33;71.65
59009;BME280;44794;42.652;23.318;2023-02-15T09:00:37;95860.69;;;4.50;71.58
59009;BME280;44794;42.652;23.318;2023-02-15T09:03:03;95862.38;;;4.51;71.20
59009;BME280;44794;42.652;23.318;2023-02-15T09:05:28;95858.25;;;4.45;71.11
59009;BME280;44794;42.652;23.318;2023-02-15T09:07:54;95860.75;;;4.47;71.44
59009;BME280;44794;42.652;23.318;2023-02-15T09:10:20;95866.94;;;4.42;71.10
59009;BME280;44794;42.652;23.318;2023-02-15T09:12:45;95862.13;;;4.31;71.98
59009;BME280;44794;42.652;23.318;2023-02-15T09:15:11;95863.56;;;4.40;71.01
59009;BME280;44794;42.652;23.318;2023-02-15T09:17:36;95865.34;;;4.65;69.83
59009;BME280;44794;42.652;23.318;2023-02-15T09:20:02;95863.13;;;4.53;69.48
59009;BME280;44794;42.652;23.318;2023-02-15T09:22:27;95859.44;;;4.34;70.59
59009;BME280;44794;42.652;23.318;2023-02-15T09:24:55;95864.41;;;4.40;70.93
59009;BME280;44794;42.652;23.318;2023-02-15T09:27:20;95857.25;;;4.49;70.59
59009;BME280;44794;42.652;23.318;2023-02-15T09:29:46;95865.31;;;4.92;70.45
59009;BME280;44794;42.652;23.318;2023-02-15T09:32:13;95862.91;;;5.14;68.94
59009;BME280;44794;42.652;23.318;2023-02-15T09:34:39;95859.88;;;5.01;69.33
59009;BME280;44794;42.652;23.318;2023-02-15T09:37:05;95864.56;;;4.89;68.95
59009;BME280;44794;42.652;23.318;2023-02-15T09:39:31;95857.19;;;5.30;68.71
59009;BME280;44794;42.652;23.318;2023-02-15T09:53:32;95862.03;;;5.63;66.53
59009;BME280;44794;42.652;23.318;2023-02-15T09:56:14;95858.44;;;5.67;65.94
59009;BME280;44794;42.652;23.318;2023-02-15T10:13:09;95845.31;;;5.50;66.30
59009;BME280;44794;42.652;23.318;2023-02-15T10:15:51;95839.13;;;5.06;66.91
59009;BME280;44794;42.652;23.318;2023-02-15T10:18:34;95839.28;;;5.01;68.40
59009;BME280;44794;42.652;23.318;2023-02-15T10:21:20;95839.38;;;5.24;68.12
59009;BME280;44794;42.652;23.318;2023-02-15T10:24:13;95847.56;;;5.59;66.43
59009;BME280;44794;42.652;23.318;2023-02-15T10:26:48;95839.44;;;5.47;67.29
59009;BME280;44794;42.652;23.318;2023-02-15T10:29:31;95837.16;;;5.62;66.91
59009;BME280;44794;42.652;23.318;2023-02-15T10:40:39;95841.78;;;5.76;64.55
59009;BME280;44794;42.652;23.318;2023-02-15T10:45:49;95834.38;;;6.37;61.84
59009;BME280;44794;42.652;23.318;2023-02-15T10:51:03;95813.47;;;5.28;65.08
59009;BME280;44794;42.652;23.318;2023-02-15T10:56:20;95813.84;;;5.17;65.50
59009;BME280;44794;42.652;23.318;2023-02-15T11:07:32;95802.00;;;5.13;67.57
59009;BME280;44794;42.652;23.318;2023-02-15T11:12:45;95796.69;;;4.91;67.83
59009;BME280;44794;42.652;23.318;2023-02-15T11:15:24;95809.38;;;4.71;69.46
59009;BME280;44794;42.652;23.318;2023-02-15T11:17:56;95793.81;;;4.76;69.38
59009;BME280;44794;42.652;23.318;2023-02-15T11:23:18;95797.84;;;4.31;70.76
59009;BME280;44794;42.652;23.318;2023-02-15T11:25:52;95795.56;;;4.48;70.93
59009;BME280;44794;42.652;23.318;2023-02-15T11:28:26;95786.63;;;4.59;70.25
59009;BME280;44794;42.652;23.318;2023-02-15T11:30:58;95791.09;;;4.54;70.07
59009;BME280;44794;42.652;23.318;2023-02-15T11:33:29;95783.50;;;4.76;70.34
59009;BME280;44794;42.652;23.318;2023-02-15T11:36:03;95772.31;;;4.77;69.95
59009;BME280;44794;42.652;23.318;2023-02-15T11:38:34;95784.47;;;4.47;70.66
59009;BME280;44794;42.652;23.318;2023-02-15T11:41:06;95781.84;;;4.49;70.21
59009;BME280;44794;42.652;23.318;2023-02-15T11:43:42;95784.53;;;4.44;69.95
59009;BME280;44794;42.652;23.318;2023-02-15T11:46:11;95786.22;;;4.45;70.51
59009;BME280;44794;42.652;23.318;2023-02-15T11:48:37;95788.75;;;4.47;69.76
59009;BME280;44794;42.652;23.318;2023-02-15T11:51:03;95775.75;;;4.51;69.87
59009;BME280;44794;42.652;23.318;2023-02-15T11:53:32;95767.88;;;4.56;69.85
59009;BME280;44794;42.652;23.318;2023-02-15T11:55:58;95774.81;;;4.54;69.32
59009;BME280;44794;42.652;23.318;2023-02-15T11:58:42;95759.09;;;4.37;69.24
59009;BME280;44794;42.652;23.318;2023-02-15T12:01:11;95764.50;;;4.54;69.38
59009;BME280;44794;42.652;23.318;2023-02-15T12:03:59;95760.16;;;4.82;68.72
59009;BME280;44794;42.652;23.318;2023-02-15T12:06:28;95747.13;;;4.86;68.46
59009;BME280;44794;42.652;23.318;2023-02-15T12:11:48;95750.06;;;5.00;68.36
59009;BME280;44794;42.652;23.318;2023-02-15T12:14:13;95745.34;;;5.13;68.14
59009;BME280;44794;42.652;23.318;2023-02-15T12:19:17;95742.47;;;5.44;67.14
59009;BME280;44794;42.652;23.318;2023-02-15T12:21:50;95738.91;;;5.48;66.24
59009;BME280;44794;42.652;23.318;2023-02-15T12:24:28;95751.38;;;5.36;66.24
59009;BME280;44794;42.652;23.318;2023-02-15T12:26:59;95740.63;;;5.01;67.73
59009;BME280;44794;42.652;23.318;2023-02-15T12:29:28;95740.63;;;5.01;68.26
59009;BME280;44794;42.652;23.318;2023-02-15T12:31:56;95734.91;;;5.17;67.80
59009;BME280;44794;42.652;23.318;2023-02-15T12:34:30;95736.59;;;5.18;67.54
59009;BME280;44794;42.652;23.318;2023-02-15T12:37:07;95735.63;;;5.20;66.84
59009;BME280;44794;42.652;23.318;2023-02-15T12:39:34;95729.16;;;5.33;66.47
59009;BME280;44794;42.652;23.318;2023-02-15T12:42:08;95720.19;;;5.43;66.27
59009;BME280;44794;42.652;23.318;2023-02-15T12:44:56;95720.84;;;5.25;67.09
59009;BME280;44794;42.652;23.318;2023-02-15T12:47:22;95714.19;;;5.43;67.02
59009;BME280;44794;42.652;23.318;2023-02-15T12:52:31;95701.19;;;5.23;67.49
59009;BME280;44794;42.652;23.318;2023-02-15T12:57:46;95699.53;;;5.45;67.17
59009;BME280;44794;42.652;23.318;2023-02-15T13:02:47;95705.22;;;5.76;66.05
59009;BME280;44794;42.652;23.318;2023-02-15T13:05:29;95701.47;;;5.38;66.30
59009;BME280;44794;42.652;23.318;2023-02-15T13:08:08;95705.06;;;5.34;66.42
59009;BME280;44794;42.652;23.318;2023-02-15T13:10:37;95704.03;;;5.40;66.47
59009;BME280;44794;42.652;23.318;2023-02-15T13:13:29;95700.44;;;5.44;66.27
59009;BME280;44794;42.652;23.318;2023-02-15T13:16:10;95700.66;;;5.38;66.83
59009;BME280;44794;42.652;23.318;2023-02-15T13:18:41;95694.78;;;5.57;66.36
59009;BME280;44794;42.652;23.318;2023-02-15T13:21:31;95699.19;;;5.77;66.11
59009;BME280;44794;42.652;23.318;2023-02-15T13:24:18;95690.94;;;5.67;65.62
59009;BME280;44794;42.652;23.318;2023-02-15T13:26:47;95690.69;;;5.73;65.58
59009;BME280;44794;42.652;23.318;2023-02-15T13:29:25;95700.28;;;5.93;65.35
59009;BME280;44794;42.652;23.318;2023-02-15T13:31:52;95693.53;;;5.90;64.87
59009;BME280;44794;42.652;23.318;2023-02-15T13:34:38;95697.41;;;6.00;64.65
59009;BME280;44794;42.652;23.318;2023-02-15T13:37:17;95699.69;;;5.86;64.92
59009;BME280;44794;42.652;23.318;2023-02-15T13:39:59;95704.00;;;5.86;64.87
59009;BME280;44794;42.652;23.318;2023-02-15T13:42:49;95696.75;;;5.72;65.13
59009;BME280;44794;42.652;23.318;2023-02-15T13:51:10;95701.25;;;5.90;65.14
59009;BME280;44794;42.652;23.318;2023-02-15T14:01:56;95711.50;;;5.92;65.28
59009;BME280;44794;42.652;23.318;2023-02-15T14:12:43;95724.56;;;5.64;66.76
59009;BME280;44794;42.652;23.318;2023-02-15T14:15:35;95732.56;;;5.57;66.91
59009;BME280;44794;42.652;23.318;2023-02-15T14:18:25;95722.09;;;5.38;67.52
59009;BME280;44794;42.652;23.318;2023-02-15T14:26:56;95736.97;;;5.08;68.83
59009;BME280;44794;42.652;23.318;2023-02-15T14:32:10;95730.91;;;5.09;69.18
59009;BME280;44794;42.652;23.318;2023-02-15T14:37:11;95727.19;;;4.93;70.20
59009;BME280;44794;42.652;23.318;2023-02-15T14:48:30;95727.63;;;4.79;71.26
59009;BME280;44794;42.652;23.318;2023-02-15T14:50:56;95728.38;;;4.83;71.27
59009;BME280;44794;42.652;23.318;2023-02-15T14:53:33;95729.25;;;4.82;71.08
59009;BME280;44794;42.652;23.318;2023-02-15T15:01:29;95732.56;;;4.61;72.35
59009;BME280;44794;42.652;23.318;2023-02-15T15:03:59;95725.44;;;4.43;72.87
59009;BME280;44794;42.652;23.318;2023-02-15T15:06:29;95722.19;;;4.38;73.32
59009;BME280;44794;42.652;23.318;2023-02-15T15:11:46;95729.13;;;4.36;73.82
59009;BME280;44794;42.652;23.318;2023-02-15T15:17:03;95717.56;;;4.22;74.53
59009;BME280;44794;42.652;23.318;2023-02-15T15:22:29;95721.47;;;4.07;75.50
59009;BME280;44794;42.652;23.318;2023-02-15T15:24:58;95737.91;;;4.03;75.59
59009;BME280;44794;42.652;23.318;2023-02-15T15:41:17;95748.34;;;3.70;77.60
59009;BME280;44794;42.652;23.318;2023-02-15T15:49:16;95747.91;;;3.56;78.69
59009;BME280;44794;42.652;23.318;2023-02-15T15:51:43;95748.72;;;3.57;78.82
59009;BME280;44794;42.652;23.318;2023-02-15T15:54:27;95743.25;;;3.40;79.57
59009;BME280;44794;42.652;23.318;2023-02-15T15:57:04;95742.44;;;3.38;79.99
59009;BME280;44794;42.652;23.318;2023-02-15T15:59:33;95742.63;;;3.32;80.70
59009;BME280;44794;42.652;23.318;2023-02-15T16:02:14;95747.94;;;3.26;81.07
59009;BME280;44794;42.652;23.318;2023-02-15T16:04:43;95747.16;;;3.22;81.43
59009;BME280;44794;42.652;23.318;2023-02-15T16:10:02;95735.34;;;3.17;81.97
59009;BME280;44794;42.652;23.318;2023-02-15T16:12:38;95741.69;;;3.04;82.70
59009;BME280;44794;42.652;23.318;2023-02-15T16:15:35;95737.78;;;2.91;83.34
59009;BME280;44794;42.652;23.318;2023-02-15T16:18:00;95741.34;;;2.86;83.91
59009;BME280;44794;42.652;23.318;2023-02-15T16:20:36;95743.94;;;2.84;84.13
59009;BME280;44794;42.652;23.318;2023-02-15T16:28:28;95742.72;;;2.65;85.42